createdAt,value
2023-01-29T00:00:53.770Z,101062.25
2023-01-29T00:03:57.200Z,101074.59
2023-01-29T00:07:00.001Z,101070.59
2023-01-29T00:10:02.475Z,101076.59
2023-01-29T00:13:06.622Z,101074.41
2023-01-29T00:16:09.421Z,101076.13
2023-01-29T00:19:12.003Z,101079.88
2023-01-29T00:22:14.468Z,101084.56
2023-01-29T00:25:17.079Z,101082.06
2023-01-29T00:28:19.622Z,101085.44
2023-01-29T00:31:24.173Z,101089.16
2023-01-29T00:34:26.798Z,101101.31
2023-01-29T00:37:29.379Z,101103.34
2023-01-29T00:40:52.116Z,101091.75
2023-01-29T00:44:13.454Z,101096.88
2023-01-29T00:47:31.084Z,101094.47
2023-01-29T00:50:34.490Z,101098.75
2023-01-29T00:53:36.976Z,101096.00
2023-01-29T00:56:39.449Z,101090.13
2023-01-29T00:59:42.114Z,101093.84
2023-01-29T01:03:03.435Z,101095.25
2023-01-29T01:06:08.412Z,101092.28
2023-01-29T01:09:29.801Z,101094.91
2023-01-29T01:12:32.478Z,101105.31
2023-01-29T01:15:37.167Z,101110.13
2023-01-29T01:18:39.852Z,101109.28
2023-01-29T01:21:45.547Z,101104.91
2023-01-29T01:24:48.174Z,101108.34
2023-01-29T01:27:54.861Z,101113.97
2023-01-29T01:30:57.458Z,101109.09
2023-01-29T01:33:59.981Z,101119.25
2023-01-29T01:37:02.891Z,101119.59
2023-01-29T01:40:12.854Z,101117.47
2023-01-29T01:43:15.372Z,101122.38
2023-01-29T01:46:17.874Z,101116.38
2023-01-29T01:49:21.772Z,101109.81
2023-01-29T01:52:24.439Z,101111.13
2023-01-29T01:55:30.294Z,101117.47
2023-01-29T01:58:50.677Z,101117.69
2023-01-29T02:01:54.415Z,101110.41
2023-01-29T02:05:16.116Z,101124.59
2023-01-29T02:08:56.300Z,101130.94
2023-01-29T02:11:58.761Z,101129.97
2023-01-29T02:15:02.073Z,101120.75
2023-01-29T02:18:04.844Z,101132.19
2023-01-29T02:21:47.247Z,101131.28
2023-01-29T02:25:32.095Z,101132.50
2023-01-29T02:28:41.975Z,101131.69
2023-01-29T02:31:51.424Z,101136.78
2023-01-29T02:35:30.629Z,101136.19
2023-01-29T02:38:44.231Z,101148.25
2023-01-29T02:42:11.770Z,101142.38
2023-01-29T02:45:21.438Z,101147.25
2023-01-29T02:48:25.782Z,101153.91
2023-01-29T02:51:32.043Z,101154.03
2023-01-29T02:54:53.554Z,101154.34
2023-01-29T02:58:07.699Z,101163.09
2023-01-29T03:01:30.940Z,101163.19
2023-01-29T03:04:42.543Z,101154.75
2023-01-29T03:07:52.351Z,101161.03
2023-01-29T03:11:07.092Z,101169.72
2023-01-29T03:14:24.185Z,101169.91
2023-01-29T03:17:34.208Z,101160.34
2023-01-29T03:20:48.312Z,101172.91
2023-01-29T03:24:12.667Z,101175.56
2023-01-29T03:27:38.949Z,101166.16
2023-01-29T03:31:05.741Z,101171.78
2023-01-29T03:34:38.936Z,101168.59
2023-01-29T03:37:48.261Z,101171.81
2023-01-29T03:40:58.276Z,101188.09
2023-01-29T03:44:15.188Z,101180.94
2023-01-29T03:47:17.648Z,101181.50
2023-01-29T03:50:38.592Z,101175.19
2023-01-29T03:53:50.205Z,101183.31
2023-01-29T03:57:19.600Z,101181.53
2023-01-29T04:00:35.957Z,101178.16
2023-01-29T04:03:46.442Z,101170.06
2023-01-29T04:06:53.137Z,101170.88
2023-01-29T04:10:00.074Z,101174.59
2023-01-29T04:13:08.976Z,101177.81
2023-01-29T04:16:20.767Z,101176.28
2023-01-29T04:19:41.624Z,101180.22
2023-01-29T04:22:48.065Z,101178.78
2023-01-29T04:26:07.244Z,101172.41
2023-01-29T04:29:17.608Z,101177.00
2023-01-29T04:32:28.316Z,101173.03
2023-01-29T04:35:34.172Z,101179.13
2023-01-29T04:38:47.793Z,101179.63
2023-01-29T04:41:55.801Z,101178.66
2023-01-29T04:45:01.784Z,101187.97
2023-01-29T04:48:18.488Z,101185.09
2023-01-29T04:51:37.028Z,101178.41
2023-01-29T04:54:51.298Z,101175.53
2023-01-29T04:58:07.450Z,101182.09
2023-01-29T05:01:17.003Z,101177.69
2023-01-29T05:04:21.689Z,101177.06
2023-01-29T05:07:25.752Z,101171.25
2023-01-29T05:10:29.299Z,101168.38
2023-01-29T05:13:35.123Z,101166.53
2023-01-29T05:16:44.147Z,101164.28
2023-01-29T05:19:47.501Z,101168.34
2023-01-29T05:22:50.234Z,101164.50
2023-01-29T05:25:52.818Z,101162.00
2023-01-29T05:28:56.273Z,101167.84
2023-01-29T05:31:58.855Z,101168.66
2023-01-29T05:35:01.575Z,101166.28
2023-01-29T05:38:04.058Z,101170.00
2023-01-29T05:41:14.157Z,101170.84
2023-01-29T05:44:16.564Z,101166.28
2023-01-29T05:47:20.072Z,101166.63
2023-01-29T05:50:23.650Z,101170.63
2023-01-29T05:53:26.131Z,101176.44
2023-01-29T05:56:28.540Z,101176.31
2023-01-29T05:59:31.371Z,101178.50
2023-01-29T06:02:33.935Z,101188.03
2023-01-29T06:05:39.487Z,101178.50
2023-01-29T06:08:42.253Z,101186.13
2023-01-29T06:11:45.063Z,101184.06
2023-01-29T06:14:47.835Z,101186.50
2023-01-29T06:17:50.402Z,101189.84
2023-01-29T06:20:52.908Z,101197.84
2023-01-29T06:23:55.591Z,101218.56
2023-01-29T06:26:58.485Z,101210.66
2023-01-29T06:30:00.969Z,101211.25
2023-01-29T06:33:03.528Z,101222.75
2023-01-29T06:36:06.601Z,101229.44
2023-01-29T06:39:09.519Z,101231.69
2023-01-29T06:42:12.061Z,101243.69
2023-01-29T06:45:14.567Z,101240.44
2023-01-29T06:48:18.072Z,101238.06
2023-01-29T06:51:22.977Z,101239.72
2023-01-29T06:54:25.498Z,101246.78
2023-01-29T06:57:30.188Z,101245.47
2023-01-29T07:00:35.182Z,101248.22
2023-01-29T07:03:38.251Z,101242.34
2023-01-29T07:06:40.691Z,101241.38
2023-01-29T07:09:43.447Z,101229.41
2023-01-29T07:12:45.891Z,101226.91
2023-01-29T07:15:48.303Z,101222.00
2023-01-29T07:18:50.770Z,101224.63
2023-01-29T07:21:53.284Z,101218.13
2023-01-29T07:24:56.054Z,101226.50
2023-01-29T07:28:01.215Z,101227.66
2023-01-29T07:31:05.360Z,101219.78
2023-01-29T07:34:07.929Z,101209.97
2023-01-29T07:37:11.430Z,101215.97
2023-01-29T07:40:15.098Z,101200.13
2023-01-29T07:43:19.244Z,101216.69
2023-01-29T07:46:21.699Z,101211.44
2023-01-29T07:49:24.274Z,101197.38
2023-01-29T07:52:27.183Z,101200.00
2023-01-29T07:55:30.408Z,101210.03
2023-01-29T07:58:35.581Z,101206.94
2023-01-29T08:01:38.948Z,101212.13
2023-01-29T08:04:41.425Z,101218.94
2023-01-29T08:07:47.356Z,101217.13
2023-01-29T08:10:52.774Z,101219.31
2023-01-29T08:13:56.677Z,101226.25
2023-01-29T08:16:59.215Z,101223.13
2023-01-29T08:20:01.853Z,101227.53
2023-01-29T08:23:14.248Z,101236.66
2023-01-29T08:26:16.849Z,101231.78
2023-01-29T08:29:19.379Z,101215.72
2023-01-29T08:32:21.840Z,101225.06
2023-01-29T08:35:25.199Z,101230.44
2023-01-29T08:38:28.007Z,101236.28
2023-01-29T08:41:30.640Z,101244.69
2023-01-29T08:44:33.125Z,101253.34
2023-01-29T08:47:35.547Z,101263.41
2023-01-29T08:50:38.734Z,101265.31
2023-01-29T08:53:41.226Z,101271.91
2023-01-29T08:56:44.129Z,101269.25
2023-01-29T08:59:46.598Z,101269.50
2023-01-29T09:02:49.050Z,101267.13
2023-01-29T09:05:51.625Z,101262.28
2023-01-29T09:08:54.212Z,101266.28
2023-01-29T09:11:56.709Z,101268.91
2023-01-29T09:14:59.296Z,101267.31
2023-01-29T09:18:05.434Z,101270.44
2023-01-29T09:21:08.238Z,101262.16
2023-01-29T09:24:11.066Z,101266.13
2023-01-29T09:27:14.701Z,101279.41
2023-01-29T09:30:18.157Z,101275.34
2023-01-29T09:33:20.951Z,101279.06
2023-01-29T09:36:23.408Z,101281.81
2023-01-29T09:39:25.978Z,101285.38
2023-01-29T09:42:41.968Z,101286.13
2023-01-29T09:45:58.356Z,101280.84
2023-01-29T09:49:24.710Z,101269.72
2023-01-29T09:52:35.121Z,101280.19
2023-01-29T09:55:41.439Z,101278.91
2023-01-29T09:58:44.217Z,101283.41
2023-01-29T10:02:10.733Z,101281.06
2023-01-29T10:05:31.816Z,101290.53
2023-01-29T10:08:59.241Z,101295.59
2023-01-29T10:12:43.112Z,101301.44
2023-01-29T10:16:13.060Z,101292.63
2023-01-29T10:19:35.734Z,101283.25
2023-01-29T10:22:44.185Z,101279.78
2023-01-29T10:25:47.880Z,101283.25
2023-01-29T10:28:54.898Z,101279.66
2023-01-29T10:32:05.092Z,101281.84
2023-01-29T10:35:42.974Z,101280.72
2023-01-29T10:38:48.214Z,101282.38
2023-01-29T10:42:28.830Z,101277.84
2023-01-29T10:45:42.283Z,101276.66
2023-01-29T10:48:50.828Z,101278.56
2023-01-29T10:51:59.026Z,101272.47
2023-01-29T10:55:19.537Z,101261.75
2023-01-29T10:58:24.695Z,101250.97
2023-01-29T11:01:27.699Z,101246.50
2023-01-29T11:04:32.382Z,101247.00
2023-01-29T11:07:34.992Z,101249.34
2023-01-29T11:10:59.090Z,101250.50
2023-01-29T11:14:09.021Z,101238.03
2023-01-29T11:17:20.135Z,101233.19
2023-01-29T11:20:27.574Z,101230.25
2023-01-29T11:23:32.668Z,101213.19
2023-01-29T11:26:39.502Z,101208.50
2023-01-29T11:29:48.472Z,101207.88
2023-01-29T11:33:05.480Z,101200.78
2023-01-29T11:36:32.900Z,101192.78
2023-01-29T11:39:44.109Z,101180.44
2023-01-29T11:42:47.460Z,101170.28
2023-01-29T11:45:52.687Z,101172.00
2023-01-29T11:48:59.365Z,101164.03
2023-01-29T11:52:10.437Z,101165.44
2023-01-29T11:55:48.580Z,101170.25
2023-01-29T11:58:55.584Z,101171.50
2023-01-29T12:02:26.797Z,101167.06
2023-01-29T12:05:29.430Z,101166.16
2023-01-29T12:08:37.107Z,101166.16
2023-01-29T12:11:39.719Z,101161.84
2023-01-29T12:14:44.020Z,101166.72
2023-01-29T12:17:56.537Z,101168.59
2023-01-29T12:21:03.616Z,101168.59
2023-01-29T12:24:12.192Z,101167.44
2023-01-29T12:27:27.709Z,101169.03
2023-01-29T12:30:34.195Z,101165.63
2023-01-29T12:34:19.234Z,101166.38
2023-01-29T12:37:42.218Z,101170.06
2023-01-29T12:40:55.268Z,101159.59
2023-01-29T12:44:19.691Z,101152.38
2023-01-29T12:47:38.789Z,101154.06
2023-01-29T12:50:41.905Z,101151.69
2023-01-29T12:53:56.942Z,101148.16
2023-01-29T12:57:03.107Z,101152.50
2023-01-29T13:00:20.423Z,101137.13
2023-01-29T13:03:48.918Z,101127.38
2023-01-29T13:06:59.247Z,101133.34
2023-01-29T13:10:12.340Z,101123.28
2023-01-29T13:13:21.140Z,101125.66
2023-01-29T13:16:31.436Z,101106.41
2023-01-29T13:19:40.932Z,101101.75
2023-01-29T13:22:46.452Z,101092.06
2023-01-29T13:25:53.500Z,101089.31
2023-01-29T13:28:57.513Z,101102.06
2023-01-29T13:32:01.878Z,101101.63
2023-01-29T13:35:13.255Z,101107.59
2023-01-29T13:38:35.498Z,101120.63
2023-01-29T13:41:42.581Z,101124.31
2023-01-29T13:44:55.875Z,101114.03
2023-01-29T13:48:32.494Z,101104.91
2023-01-29T13:51:36.785Z,101111.03
2023-01-29T13:54:39.830Z,101081.34
2023-01-29T13:57:45.088Z,101080.91
2023-01-29T14:00:49.469Z,101086.81
2023-01-29T14:04:04.555Z,101092.47
2023-01-29T14:07:45.674Z,101110.97
2023-01-29T14:11:17.315Z,101110.75
2023-01-29T14:14:56.861Z,101114.13
2023-01-29T14:18:06.905Z,101114.53
2023-01-29T14:21:25.295Z,101114.59
2023-01-29T14:24:31.100Z,101113.97
2023-01-29T14:27:35.773Z,101112.56
2023-01-29T14:30:41.160Z,101115.06
2023-01-29T14:33:45.485Z,101106.53
2023-01-29T14:36:55.388Z,101112.69
2023-01-29T14:40:06.300Z,101114.50
2023-01-29T14:43:20.816Z,101115.59
2023-01-29T14:46:35.423Z,101113.59
2023-01-29T14:49:58.889Z,101116.16
2023-01-29T14:53:06.385Z,101124.34
2023-01-29T14:56:20.129Z,101124.88
2023-01-29T14:59:29.589Z,101117.22
2023-01-29T15:02:44.052Z,101129.44
2023-01-29T15:05:49.159Z,101118.22
2023-01-29T15:09:12.101Z,101116.88
2023-01-29T15:12:28.141Z,101112.59
2023-01-29T15:15:44.125Z,101111.47
2023-01-29T15:18:51.097Z,101104.75
2023-01-29T15:22:23.349Z,101104.44
2023-01-29T15:25:30.644Z,101109.44
2023-01-29T15:28:35.433Z,101111.34
2023-01-29T15:31:42.430Z,101111.34
2023-01-29T15:34:45.092Z,101121.31
2023-01-29T15:38:02.445Z,101110.44
2023-01-29T15:41:19.590Z,101116.00
2023-01-29T15:44:23.204Z,101111.06
2023-01-29T15:47:32.077Z,101122.13
2023-01-29T15:50:39.377Z,101125.47
2023-01-29T15:53:48.289Z,101125.44
2023-01-29T15:56:53.176Z,101120.75
2023-01-29T15:59:58.949Z,101125.16
2023-01-29T16:03:14.337Z,101118.97
2023-01-29T16:06:17.346Z,101115.72
2023-01-29T16:09:23.754Z,101115.94
2023-01-29T16:12:27.122Z,101127.59
2023-01-29T16:15:38.048Z,101127.34
2023-01-29T16:18:57.929Z,101129.66
2023-01-29T16:22:05.399Z,101125.25
2023-01-29T16:25:14.803Z,101127.38
2023-01-29T16:28:18.114Z,101133.78
2023-01-29T16:31:27.312Z,101145.44
2023-01-29T16:34:37.402Z,101143.81
2023-01-29T16:37:40.104Z,101149.81
2023-01-29T16:41:12.661Z,101154.09
2023-01-29T16:44:15.376Z,101157.22
2023-01-29T16:47:33.229Z,101151.59
2023-01-29T16:50:46.328Z,101158.19
2023-01-29T16:53:57.718Z,101164.59
2023-01-29T16:57:02.060Z,101159.88
2023-01-29T17:00:08.720Z,101164.81
2023-01-29T17:03:13.485Z,101157.03
2023-01-29T17:06:24.841Z,101152.75
2023-01-29T17:09:30.276Z,101149.50
2023-01-29T17:12:33.757Z,101149.69
2023-01-29T17:15:45.084Z,101145.13
2023-01-29T17:18:49.484Z,101147.22
2023-01-29T17:21:52.240Z,101139.56
2023-01-29T17:24:55.014Z,101127.94
2023-01-29T17:28:01.713Z,101122.88
2023-01-29T17:31:07.091Z,101116.50
2023-01-29T17:34:14.798Z,101114.97
2023-01-29T17:37:17.531Z,101110.88
2023-01-29T17:40:37.087Z,101116.97
2023-01-29T17:43:39.873Z,101121.25
2023-01-29T17:46:43.381Z,101114.88
2023-01-29T17:49:47.881Z,101104.28
2023-01-29T17:52:50.953Z,101105.66
2023-01-29T17:55:54.427Z,101104.72
2023-01-29T17:58:57.187Z,101102.09
2023-01-29T18:02:00.613Z,101103.97
2023-01-29T18:05:03.638Z,101098.31
2023-01-29T18:08:07.673Z,101097.69
2023-01-29T18:11:12.877Z,101097.41
2023-01-29T18:14:15.696Z,101097.00
2023-01-29T18:17:22.499Z,101097.59
2023-01-29T18:20:25.811Z,101093.94
2023-01-29T18:23:31.208Z,101087.38
2023-01-29T18:26:35.987Z,101087.16
2023-01-29T18:29:38.723Z,101093.75
2023-01-29T18:32:41.497Z,101094.19
2023-01-29T18:35:45.288Z,101088.41
2023-01-29T18:38:48.045Z,101080.75
2023-01-29T18:41:50.813Z,101077.50
2023-01-29T18:44:53.280Z,101086.66
2023-01-29T18:47:57.597Z,101087.59
2023-01-29T18:51:01.412Z,101085.59
2023-01-29T18:54:04.339Z,101085.91
2023-01-29T18:57:13.570Z,101093.25
2023-01-29T19:00:17.854Z,101094.38
2023-01-29T19:03:21.850Z,101098.16
2023-01-29T19:06:24.670Z,101086.75
2023-01-29T19:09:27.525Z,101087.50
2023-01-29T19:12:30.246Z,101080.97
2023-01-29T19:15:34.824Z,101075.53
2023-01-29T19:18:37.984Z,101075.25
2023-01-29T19:21:41.083Z,101087.81
2023-01-29T19:24:45.865Z,101081.50
2023-01-29T19:27:48.715Z,101082.69
2023-01-29T19:30:52.588Z,101075.25
2023-01-29T19:33:55.472Z,101079.63
2023-01-29T19:36:58.269Z,101075.34
2023-01-29T19:40:01.210Z,101065.78
2023-01-29T19:43:05.062Z,101059.00
2023-01-29T19:46:07.720Z,101059.91
2023-01-29T19:49:10.700Z,101071.97
2023-01-29T19:52:45.143Z,101072.31
2023-01-29T19:56:05.035Z,101074.28
2023-01-29T19:59:07.808Z,101068.28
2023-01-29T20:02:10.807Z,101077.00
2023-01-29T20:05:17.400Z,101082.13
2023-01-29T20:08:20.790Z,101082.13
2023-01-29T20:11:24.847Z,101070.31
2023-01-29T20:14:27.742Z,101055.22
2023-01-29T20:17:30.776Z,101050.81
2023-01-29T20:20:34.464Z,101046.34
2023-01-29T20:23:41.639Z,101050.41
2023-01-29T20:26:44.541Z,101043.72
2023-01-29T20:29:47.637Z,101046.13
2023-01-29T20:32:50.495Z,101043.94
2023-01-29T20:35:55.305Z,101044.13
2023-01-29T20:38:58.132Z,101040.13
2023-01-29T20:42:00.669Z,101035.75
2023-01-29T20:45:03.885Z,101041.41
2023-01-29T20:48:08.075Z,101043.69
2023-01-29T20:51:16.270Z,101056.88
2023-01-29T20:54:18.803Z,101062.34
2023-01-29T20:57:21.747Z,101060.53
2023-01-29T21:00:24.508Z,101058.88
2023-01-29T21:03:27.395Z,101067.56
2023-01-29T21:06:30.337Z,101057.00
2023-01-29T21:09:33.181Z,101067.56
2023-01-29T21:12:35.957Z,101080.53
2023-01-29T21:15:38.654Z,101079.69
2023-01-29T21:18:41.414Z,101080.13
2023-01-29T21:21:43.984Z,101082.09
2023-01-29T21:24:46.681Z,101082.00
2023-01-29T21:27:50.432Z,101076.88
2023-01-29T21:31:03.329Z,101073.22
2023-01-29T21:34:06.198Z,101074.75
2023-01-29T21:37:09.683Z,101075.16
2023-01-29T21:40:12.206Z,101067.09
2023-01-29T21:43:16.045Z,101071.28
2023-01-29T21:46:18.757Z,101074.00
2023-01-29T21:49:21.501Z,101076.72
2023-01-29T21:52:24.007Z,101072.53
2023-01-29T21:55:26.704Z,101064.28
2023-01-29T21:58:30.092Z,101068.38
2023-01-29T22:01:37.803Z,101052.69
2023-01-29T22:04:42.629Z,101049.03
2023-01-29T22:07:45.063Z,101045.16
2023-01-29T22:10:47.769Z,101045.56
2023-01-29T22:13:50.440Z,101038.91
2023-01-29T22:16:52.965Z,101037.22
2023-01-29T22:19:55.486Z,101030.09
2023-01-29T22:23:00.304Z,101026.31
2023-01-29T22:26:04.493Z,101027.28
2023-01-29T22:29:07.082Z,101019.63
2023-01-29T22:32:11.065Z,101011.56
2023-01-29T22:35:13.661Z,101007.75
2023-01-29T22:38:16.107Z,101006.84
2023-01-29T22:41:18.552Z,100995.53
2023-01-29T22:44:21.125Z,100988.50
2023-01-29T22:47:23.583Z,100985.78
2023-01-29T22:50:26.059Z,100982.63
2023-01-29T22:53:28.480Z,100982.63
2023-01-29T22:56:31.226Z,100987.66
2023-01-29T22:59:33.898Z,100987.88
2023-01-29T23:02:37.308Z,100984.84
2023-01-29T23:05:39.879Z,100985.16
2023-01-29T23:08:42.973Z,100983.78
2023-01-29T23:11:45.501Z,100980.88
2023-01-29T23:14:47.918Z,100975.34
2023-01-29T23:17:50.431Z,100970.75
2023-01-29T23:20:57.391Z,100973.66
2023-01-29T23:24:01.067Z,100970.53
2023-01-29T23:27:15.869Z,100965.09
2023-01-29T23:30:18.756Z,100958.47
2023-01-29T23:33:21.626Z,100957.13
2023-01-29T23:36:24.281Z,100957.66
2023-01-29T23:39:26.737Z,100949.81
2023-01-29T23:42:29.344Z,100949.28
2023-01-29T23:45:31.823Z,100946.78
2023-01-29T23:48:34.734Z,100947.41
2023-01-29T23:51:37.213Z,100941.22
2023-01-29T23:54:39.649Z,100932.25
2023-01-29T23:57:42.092Z,100931.59
